Airport ICAO


11:55 UTC

26°C


An affordable passengers' Moving Map for your aircraft. Made for the iPad and the iPhone
More information here

EGLL Heathrow


London UNITED KINGDOM   VFR


METAR EGLL 191150Z AUTO 16004KT 090V240 9999 NCD 26/10 Q1023 NOSIG 0h05min

TAF EGLL 191052Z 1912/2018 VRB03KT CAVOK BECMG 2000/2003 6000 PROB40 2004/2008 4000 HZ BECMG 2008/2011 CAVOK 1h03min





NOTAMS

OPEN